Pagina principală
METAR-TAF:

METAR-TAF

Aeroporturi :

Juigalpa, Nicaragua

Latitudine: 12-06N, longitudine: 085-22W, elevație: 90 m

Observații meteo curente

Raportul a fost făcut în urmă cu 13 ore și 2 de minute, la 22:00 UTC
Vânt 4 kt de la Est
Temperatură 32°C
Umiditate 52%
Presiune 1011 hPa
Vizibilitate de 10 km sau mai mult
Nori împrăștiați la o înălțime de 2000 picior

METAR: MNJU 292200Z 09004KT 9999 SCT020 32/21 Q1011

Ora: 05:02 (11:02 UTC)


TAF: lipsă

Observații și prognoze meteo pentru peste 4.000 de aeroporturi (rapoarte METAR și TAF).

Stațiile disponibile sunt reprezentate pe hartă prin puncte galbene și roșii.

Țineți indicatorul mouse-ului pe punctul dorit pentru a vedea denumirea stației.

Apoi, faceți clic pentru a vedea observațiile și prognozele meteorologice.

Pentru a schimba harta: Pentru mărire, faceți clic pe butoanele verzi cu cruce neagră; pentru micșorare, pe butonul verde cu o liniuță; pentru hărți învecinate, pe săgețile verzi.


METAR-TAF: